Time;durP1;ratioP1;P1;durP2;ratioP2;P2;SDS_P1;SDS_P2;PMS_P1;PMS_P2;Temp;Humidity;BMP_temperature;BMP_pressure;BME280_temperature;BME280_humidity;BME280_pressure;Samples;Min_cycle;Max_cycle;Signal;HPM_P1;HPM_P2
2022/08/03 00:01:08;;;;;;;;;;;;;;;26.25;40.16;99952.53;5034990;28;19909;-76
2022/08/03 00:03:36;;;;;;;;;;;;;;;26.22;40.15;99953.50;5034769;28;19909;-75
2022/08/03 00:06:04;;;;;;;;;;;;;;;26.28;40.30;99947.94;5016755;28;19909;-76
2022/08/03 00:08:32;;;;;;;;;;;;;;;26.23;39.82;99952.22;5016759;28;20304;-76
2022/08/03 00:10:59;;;;;;;;;;;;;;;26.21;40.10;99951.13;5016669;28;19915;-76
2022/08/03 00:13:31;;;;;;;;;;;;;;;26.19;40.27;99947.94;5016607;28;19908;-76
2022/08/03 00:15:58;;;;;;;;;;;;;;;26.07;39.98;99930.53;5016837;28;20377;-75
2022/08/03 00:18:27;;;;;;;;;;;;;;;26.18;40.10;99937.81;5016695;28;19986;-76
2022/08/03 00:20:52;;;;;;;;;;;;;;;26.22;40.31;99944.16;5016498;28;19909;-75
2022/08/03 00:23:17;;;;;;;;;;;;;;;26.16;39.67;99940.34;5016428;28;19962;-75
2022/08/03 00:25:46;;;;;;;;;;;;;;;26.16;39.79;99940.34;5016538;28;20003;-75
2022/08/03 00:28:11;;;;;;;;;;;;;;;26.09;39.61;99944.28;5016680;28;20011;-75
2022/08/03 00:30:37;;;;;;;;;;;;;;;26.08;39.39;99937.00;5016596;28;19916;-75
2022/08/03 00:33:05;;;;;;;;;;;;;;;26.06;39.29;99940.34;5016731;28;19909;-76
2022/08/03 00:35:33;;;;;;;;;;;;;;;26.05;39.42;99950.19;5013022;28;20019;-76
2022/08/03 00:38:01;;;;;;;;;;;;;;;26.00;39.64;99947.97;5014461;28;19910;-75
2022/08/03 00:40:27;;;;;;;;;;;;;;;25.92;39.80;99935.28;5013183;28;19916;-76
2022/08/03 00:42:59;;;;;;;;;;;;;;;25.89;39.90;99941.94;5013147;28;19910;-76
2022/08/03 00:45:28;;;;;;;;;;;;;;;25.83;39.88;99933.22;5012564;28;19910;-76
2022/08/03 00:47:54;;;;;;;;;;;;;;;25.91;39.62;99933.69;5012796;28;19909;-75
2022/08/03 00:50:23;;;;;;;;;;;;;;;25.81;40.15;99929.25;5012704;28;19910;-75
2022/08/03 00:52:53;;;;;;;;;;;;;;;25.76;40.25;99932.72;5012932;28;19998;-76
2022/08/03 00:55:22;;;;;;;;;;;;;;;25.84;40.01;99928.31;4996746;28;19920;-76
2022/08/03 00:57:48;;;;;;;;;;;;;;;25.79;40.16;99926.09;5012685;28;19967;-75
2022/08/03 01:00:15;;;;;;;;;;;;;;;25.73;40.59;99933.66;5012638;28;19913;-76
2022/08/03 01:02:40;;;;;;;;;;;;;;;25.76;40.26;99930.66;5012532;28;19967;-76
2022/08/03 01:05:09;;;;;;;;;;;;;;;25.73;40.11;99939.38;5012498;28;19910;-75
2022/08/03 01:07:53;;;;;;;;;;;;;;;25.76;40.00;99939.22;5012572;28;19913;-75
2022/08/03 01:10:31;;;;;;;;;;;;;;;25.76;40.03;99930.66;5012526;28;19996;-76
2022/08/03 01:13:14;;;;;;;;;;;;;;;25.85;39.77;99927.03;5012728;28;19952;-77
2022/08/03 01:15:51;;;;;;;;;;;;;;;25.72;39.79;99926.38;5012479;28;19913;-76
2022/08/03 01:18:22;;;;;;;;;;;;;;;25.69;39.82;99921.63;5014126;28;19910;-75
2022/08/03 01:20:52;;;;;;;;;;;;;;;25.74;39.42;99926.69;5016503;28;19991;-76
2022/08/03 01:23:23;;;;;;;;;;;;;;;25.65;40.09;99926.69;5016311;28;19910;-76
2022/08/03 01:25:54;;;;;;;;;;;;;;;25.72;39.44;99927.16;5016345;28;20263;-76
2022/08/03 01:28:19;;;;;;;;;;;;;;;25.63;39.63;99923.53;5016284;28;20008;-76
2022/08/03 01:30:45;;;;;;;;;;;;;;;25.60;39.67;99923.19;5016317;28;19948;-75
2022/08/03 01:33:11;;;;;;;;;;;;;;;25.60;39.76;99934.56;5016112;28;20274;-76
2022/08/03 01:35:54;;;;;;;;;;;;;;;25.70;39.01;99921.16;5015855;28;19913;-76
2022/08/03 01:38:29;;;;;;;;;;;;;;;25.67;39.48;99924.94;5016114;28;19963;-76
2022/08/03 01:40:55;;;;;;;;;;;;;;;25.63;39.31;99921.47;5015913;28;19909;-76
2022/08/03 01:43:27;;;;;;;;;;;;;;;25.58;39.57;99922.88;5016034;28;20379;-76
2022/08/03 01:45:54;;;;;;;;;;;;;;;25.55;39.26;99923.03;5015869;28;20007;-75
2022/08/03 01:48:22;;;;;;;;;;;;;;;25.55;38.52;99923.81;5016072;28;19909;-76
2022/08/03 01:50:51;;;;;;;;;;;;;;;25.61;38.52;99926.81;5016066;28;20000;-76
2022/08/03 01:53:17;;;;;;;;;;;;;;;25.66;38.33;99922.56;5016155;28;19909;-76
2022/08/03 01:55:47;;;;;;;;;;;;;;;25.60;38.52;99925.25;5015914;28;19913;-76
2022/08/03 01:58:15;;;;;;;;;;;;;;;25.71;38.04;99921.94;5015983;28;20004;-76
2022/08/03 02:00:42;;;;;;;;;;;;;;;25.73;38.09;99922.28;5015903;28;19910;-76
2022/08/03 02:05:52;;;;;;;;;;;;;;;25.57;38.63;99921.31;5017226;28;19920;-75
2022/08/03 02:08:18;;;;;;;;;;;;;;;25.58;37.81;99920.03;5015674;28;20387;-75
2022/08/03 02:10:45;;;;;;;;;;;;;;;25.60;37.96;99914.63;5015914;28;19951;-76
2022/08/03 02:13:14;;;;;;;;;;;;;;;25.57;38.35;99915.59;5015735;28;19913;-76
2022/08/03 02:15:40;;;;;;;;;;;;;;;25.54;38.31;99910.84;5015537;28;20340;-76
2022/08/03 02:18:09;;;;;;;;;;;;;;;25.57;38.16;99912.75;5015801;28;20245;-75
2022/08/03 02:20:37;;;;;;;;;;;;;;;25.61;38.39;99915.44;5015515;28;20398;-75
2022/08/03 02:23:05;;;;;;;;;;;;;;;25.58;38.16;99905.78;5016603;28;20360;-75
2022/08/03 02:25:33;;;;;;;;;;;;;;;25.55;38.17;99905.94;5015287;28;19952;-75
2022/08/03 02:28:05;;;;;;;;;;;;;;;25.56;38.44;99905.44;5015111;28;19999;-75
2022/08/03 02:30:37;;;;;;;;;;;;;;;25.52;38.18;99901.97;5015248;28;19917;-76
2022/08/03 02:33:09;;;;;;;;;;;;;;;25.54;38.37;99907.19;5015007;28;19917;-75
2022/08/03 02:35:38;;;;;;;;;;;;;;;25.57;37.74;99906.28;5014951;28;20330;-76
2022/08/03 02:38:27;;;;;;;;;;;;;;;25.57;37.88;99909.91;5016306;28;19909;-76
2022/08/03 02:40:57;;;;;;;;;;;;;;;25.49;38.43;99911.47;5014741;28;19909;-76
2022/08/03 02:43:26;;;;;;;;;;;;;;;25.50;38.10;99910.19;5015851;28;20408;-75
2022/08/03 02:45:52;;;;;;;;;;;;;;;25.52;37.73;99907.69;5014623;28;19915;-76
2022/08/03 02:48:22;;;;;;;;;;;;;;;25.47;38.04;99905.47;5014556;28;19915;-75
2022/08/03 02:50:50;;;;;;;;;;;;;;;25.43;38.25;99906.88;5014858;28;20004;-76
2022/08/03 02:53:16;;;;;;;;;;;;;;;25.45;38.40;99910.03;5014564;28;19909;-76
2022/08/03 02:55:43;;;;;;;;;;;;;;;25.39;38.20;99901.31;5014977;28;19940;-75
2022/08/03 02:58:14;;;;;;;;;;;;;;;25.39;37.97;99909.84;5014566;28;20011;-76
2022/08/03 03:00:45;;;;;;;;;;;;;;;25.41;37.83;99907.34;5014550;28;20019;-76
2022/08/03 03:03:10;;;;;;;;;;;;;;;25.30;38.58;99901.28;5014891;28;19913;-76
2022/08/03 03:05:36;;;;;;;;;;;;;;;25.25;38.58;99905.56;5014597;28;20283;-75
2022/08/03 03:08:05;;;;;;;;;;;;;;;25.23;38.70;99902.38;5014590;28;19916;-75
2022/08/03 03:10:30;;;;;;;;;;;;;;;25.24;38.39;99903.19;5014794;28;19921;-75
2022/08/03 03:12:59;;;;;;;;;;;;;;;25.25;38.61;99905.56;5014551;28;19909;-75
2022/08/03 03:15:29;;;;;;;;;;;;;;;25.18;38.40;99899.38;5014656;28;19909;-75
2022/08/03 03:17:55;;;;;;;;;;;;;;;25.19;38.38;99906.63;5014603;28;19909;-77
2022/08/03 03:20:22;;;;;;;;;;;;;;;25.16;38.31;99907.59;5013936;28;19909;-76
2022/08/03 03:22:49;;;;;;;;;;;;;;;25.26;38.21;99901.47;5014438;28;19913;-75
2022/08/03 03:25:18;;;;;;;;;;;;;;;25.16;38.53;99907.59;5014286;28;20277;-75
2022/08/03 03:27:47;;;;;;;;;;;;;;;25.17;38.31;99909.19;5014355;28;20390;-75
2022/08/03 03:30:13;;;;;;;;;;;;;;;25.08;38.68;99902.19;5014435;28;20335;-75
2022/08/03 03:32:40;;;;;;;;;;;;;;;25.12;39.09;99901.25;5014397;28;19949;-75
2022/08/03 03:35:09;;;;;;;;;;;;;;;25.11;38.27;99905.38;5014122;28;19936;-75
2022/08/03 03:37:34;;;;;;;;;;;;;;;25.14;38.47;99907.25;5014305;28;20003;-75
2022/08/03 03:40:00;;;;;;;;;;;;;;;25.20;38.50;99914.72;5014012;28;19994;-75
2022/08/03 03:42:29;;;;;;;;;;;;;;;25.25;38.23;99913.31;5013936;28;20007;-77
2022/08/03 03:44:57;;;;;;;;;;;;;;;25.22;38.19;99911.41;5013819;28;19909;-76
2022/08/03 03:47:25;;;;;;;;;;;;;;;25.16;38.21;99907.59;5013992;28;20318;-76
2022/08/03 03:49:51;;;;;;;;;;;;;;;25.13;38.87;99908.53;5013661;28;19921;-76
2022/08/03 03:52:19;;;;;;;;;;;;;;;25.14;38.61;99912.94;5013770;28;19909;-76
2022/08/03 03:54:45;;;;;;;;;;;;;;;25.13;38.82;99914.22;5013750;28;19909;-75
2022/08/03 03:57:16;;;;;;;;;;;;;;;25.14;38.59;99912.94;5013537;28;20272;-75
2022/08/03 03:59:41;;;;;;;;;;;;;;;25.13;38.56;99914.22;5013389;28;20344;-75
2022/08/03 04:02:07;;;;;;;;;;;;;;;25.17;38.89;99914.88;5013324;28;19960;-76
2022/08/03 04:12:50;;;;;;;;;;;;;;;25.24;38.51;99929.59;5015220;28;19916;-76
2022/08/03 04:15:22;;;;;;;;;;;;;;;25.31;38.43;99925.66;5013842;28;19916;-76
2022/08/03 04:17:49;;;;;;;;;;;;;;;25.39;38.20;99932.63;5010762;28;20382;-76
2022/08/03 04:20:19;;;;;;;;;;;;;;;25.38;37.69;99931.06;4997279;28;20019;-76
2022/08/03 04:22:45;;;;;;;;;;;;;;;25.46;38.18;99935.22;5013518;28;19909;-75
2022/08/03 04:25:15;;;;;;;;;;;;;;;25.48;37.88;99929.81;5014142;28;19913;-77
2022/08/03 04:27:41;;;;;;;;;;;;;;;25.80;37.13;99928.47;4997378;28;19917;-76
2022/08/03 04:30:08;;;;;;;;;;;;;;;26.36;36.75;99929.22;5013855;28;19916;-76
2022/08/03 04:32:37;;;;;;;;;;;;;;;26.84;35.84;99933.06;5013539;28;19909;-76
2022/08/03 04:35:10;;;;;;;;;;;;;;;27.32;34.69;99941.00;5013452;28;19913;-75
2022/08/03 04:37:44;;;;;;;;;;;;;;;27.80;34.30;99941.03;5013215;28;19914;-76
2022/08/03 04:40:17;;;;;;;;;;;;;;;28.31;33.33;99952.22;5013799;28;19920;-75
2022/08/03 04:42:45;;;;;;;;;;;;;;;28.76;32.30;99949.38;5014448;28;19909;-76
2022/08/03 04:45:14;;;;;;;;;;;;;;;29.25;32.05;99945.81;4997439;28;19968;-75
2022/08/03 04:47:43;;;;;;;;;;;;;;;29.65;31.35;99950.03;5013831;28;20051;-76
2022/08/03 04:50:09;;;;;;;;;;;;;;;30.04;31.12;99953.38;4997369;28;19921;-76
2022/08/03 04:52:35;;;;;;;;;;;;;;;30.55;29.57;99956.84;5012259;28;19919;-75
2022/08/03 04:55:00;;;;;;;;;;;;;;;31.01;29.22;99963.31;5013105;28;19909;-76
2022/08/03 04:57:26;;;;;;;;;;;;;;;31.42;28.48;99965.16;5013342;28;19909;-76
2022/08/03 04:59:55;;;;;;;;;;;;;;;31.71;28.15;99970.59;5013936;28;20003;-76
2022/08/03 05:02:20;;;;;;;;;;;;;;;32.05;27.54;99973.63;5013221;28;20024;-76
2022/08/03 05:04:46;;;;;;;;;;;;;;;32.34;26.91;99981.84;5013727;28;19956;-75
2022/08/03 05:07:14;;;;;;;;;;;;;;;32.91;26.25;99984.88;5013502;28;19944;-76
2022/08/03 05:09:40;;;;;;;;;;;;;;;33.04;26.28;99977.28;5013070;28;20395;-75
2022/08/03 05:12:06;;;;;;;;;;;;;;;33.40;25.82;99985.34;4996572;28;19917;-76
2022/08/03 05:14:36;;;;;;;;;;;;;;;33.50;25.65;99987.47;5012772;28;19910;-74
2022/08/03 05:17:18;;;;;;;;;;;;;;;33.59;25.72;99978.53;5014600;28;19909;-75
2022/08/03 05:19:46;;;;;;;;;;;;;;;33.66;25.75;99985.06;5014066;28;20004;-75
2022/08/03 05:22:14;;;;;;;;;;;;;;;33.99;24.85;99987.09;5013117;28;19932;-75
2022/08/03 05:24:39;;;;;;;;;;;;;;;34.19;24.94;99980.19;5012622;28;19910;-75
2022/08/03 05:27:05;;;;;;;;;;;;;;;34.53;24.17;99975.81;5013097;28;19910;-75
2022/08/03 05:29:30;;;;;;;;;;;;;;;34.72;24.21;99981.72;5013072;28;20356;-75
2022/08/03 05:32:01;;;;;;;;;;;;;;;34.73;23.89;99982.50;5012089;28;19917;-75
2022/08/03 05:34:30;;;;;;;;;;;;;;;35.38;23.15;99990.41;5012367;28;19913;-75
2022/08/03 05:37:01;;;;;;;;;;;;;;;35.60;22.61;99986.53;5014098;28;19956;-75
2022/08/03 05:39:29;;;;;;;;;;;;;;;35.20;22.71;99985.31;5012610;28;19916;-75
2022/08/03 05:41:54;;;;;;;;;;;;;;;35.79;22.65;99992.34;5012506;28;19909;-75
2022/08/03 05:44:24;;;;;;;;;;;;;;;35.72;22.76;99987.16;5012430;28;19913;-75
2022/08/03 05:46:49;;;;;;;;;;;;;;;36.12;22.80;99982.50;5012475;28;19913;-75
2022/08/03 05:49:15;;;;;;;;;;;;;;;36.46;22.34;99989.44;5012474;28;20256;-74
2022/08/03 05:51:40;;;;;;;;;;;;;;;36.38;22.21;99996.34;5012303;28;19917;-74
2022/08/03 05:54:10;;;;;;;;;;;;;;;36.24;21.84;99995.50;5012175;28;19909;-75
2022/08/03 05:56:41;;;;;;;;;;;;;;;36.32;21.61;100005.13;5012024;28;19981;-75
2022/08/03 05:59:06;;;;;;;;;;;;;;;36.50;21.90;100002.81;5013159;28;19995;-75
2022/08/03 06:01:34;;;;;;;;;;;;;;;36.20;22.00;100007.41;5012250;28;20008;-75
2022/08/03 06:04:00;;;;;;;;;;;;;;;36.46;21.84;100011.81;5013089;28;19916;-75
2022/08/03 06:06:28;;;;;;;;;;;;;;;36.95;21.76;100009.50;5016004;28;19972;-75
2022/08/03 06:08:53;;;;;;;;;;;;;;;37.09;21.02;100009.56;5015937;28;20055;-75
2022/08/03 06:11:19;;;;;;;;;;;;;;;36.00;22.23;100015.81;5015448;28;19992;-74
2022/08/03 06:13:46;;;;;;;;;;;;;;;35.84;22.54;100011.75;5015815;28;19924;-75
2022/08/03 06:16:14;;;;;;;;;;;;;;;36.36;22.29;100019.31;5015263;28;19932;-75
2022/08/03 06:18:42;;;;;;;;;;;;;;;36.74;22.02;100017.19;5015391;28;19959;-74
2022/08/03 06:21:10;;;;;;;;;;;;;;;36.01;22.47;100026.06;5015412;28;20402;-74
2022/08/03 06:23:42;;;;;;;;;;;;;;;35.98;22.50;100024.28;5015840;28;19917;-75
2022/08/03 06:26:13;;;;;;;;;;;;;;;36.14;22.29;100026.94;5015404;28;20039;-74
2022/08/03 06:28:38;;;;;;;;;;;;;;;35.75;23.00;100024.50;5015165;28;19916;-74
2022/08/03 06:31:06;;;;;;;;;;;;;;;35.61;23.44;100023.59;5015712;28;19909;-74
2022/08/03 06:33:31;;;;;;;;;;;;;;;35.92;22.88;100033.00;5015120;28;19909;-75
2022/08/03 06:35:59;;;;;;;;;;;;;;;35.32;23.92;100022.28;5033385;28;19913;-74
2022/08/03 06:38:28;;;;;;;;;;;;;;;35.80;23.42;100032.34;5036682;28;19909;-74
2022/08/03 06:40:55;;;;;;;;;;;;;;;36.37;22.81;100033.22;5018265;28;19920;-74
2022/08/03 06:43:23;;;;;;;;;;;;;;;36.40;22.09;100032.16;5018912;28;19959;-74
2022/08/03 06:45:48;;;;;;;;;;;;;;;36.72;21.80;100031.47;5017997;28;19909;-74
2022/08/03 06:48:14;;;;;;;;;;;;;;;36.37;22.03;100033.22;5018122;28;19919;-74
2022/08/03 06:50:45;;;;;;;;;;;;;;;35.74;22.33;100034.47;5018118;28;19971;-73
2022/08/03 06:53:11;;;;;;;;;;;;;;;35.67;22.39;100038.00;5018464;28;19912;-73
2022/08/03 06:55:36;;;;;;;;;;;;;;;36.75;22.38;100033.25;5017975;28;20369;-73
2022/08/03 06:58:02;;;;;;;;;;;;;;;37.29;21.44;100040.88;5018065;28;19909;-74
2022/08/03 07:00:27;;;;;;;;;;;;;;;37.54;21.09;100043.63;5018146;28;19955;-73
2022/08/03 07:02:53;;;;;;;;;;;;;;;38.43;20.14;100046.91;5018535;28;19963;-73
2022/08/03 07:05:18;;;;;;;;;;;;;;;38.70;19.86;100047.63;5017711;28;19913;-73
2022/08/03 07:07:44;;;;;;;;;;;;;;;37.69;20.13;100050.44;5017643;28;19916;-74
2022/08/03 07:10:10;;;;;;;;;;;;;;;37.42;19.95;100046.72;5017851;28;20416;-74
2022/08/03 07:12:36;;;;;;;;;;;;;;;37.68;19.98;100048.91;5017569;28;19948;-74
2022/08/03 07:15:03;;;;;;;;;;;;;;;37.95;19.56;100048.94;5016990;28;20006;-73
2022/08/03 07:17:29;;;;;;;;;;;;;;;38.20;20.16;100049.50;5017677;28;19910;-74
2022/08/03 07:19:55;;;;;;;;;;;;;;;38.17;20.06;100054.28;5017848;28;19916;-74
2022/08/03 07:22:20;;;;;;;;;;;;;;;37.83;19.91;100048.38;5018102;28;19909;-74
2022/08/03 07:24:46;;;;;;;;;;;;;;;37.83;20.18;100047.59;5017568;28;20378;-74
2022/08/03 07:27:12;;;;;;;;;;;;;;;38.08;20.23;100051.84;5035212;28;19909;-74
2022/08/03 07:29:40;;;;;;;;;;;;;;;37.75;20.18;100041.63;5017448;28;20285;-74
2022/08/03 07:32:08;;;;;;;;;;;;;;;37.60;20.68;100055.91;5017312;28;19959;-74
2022/08/03 07:34:37;;;;;;;;;;;;;;;38.32;19.97;100047.94;5016736;28;19913;-74
2022/08/03 07:37:02;;;;;;;;;;;;;;;38.33;19.45;100052.41;5017651;28;19943;-74
2022/08/03 07:39:27;;;;;;;;;;;;;;;37.99;19.91;100047.28;5017764;28;19956;-75
2022/08/03 07:41:53;;;;;;;;;;;;;;;38.63;19.14;100054.16;5017323;28;19963;-74
2022/08/03 07:44:19;;;;;;;;;;;;;;;38.32;18.99;100056.66;5017125;28;19979;-75
2022/08/03 07:46:45;;;;;;;;;;;;;;;38.22;19.36;100049.72;5017387;28;20371;-74
2022/08/03 07:49:12;;;;;;;;;;;;;;;38.17;19.30;100057.19;5017066;28;19913;-74
2022/08/03 07:51:40;;;;;;;;;;;;;;;38.63;19.01;100057.84;5035077;28;20328;-73
2022/08/03 07:54:09;;;;;;;;;;;;;;;39.19;18.27;100055.78;5016888;28;19948;-73
2022/08/03 07:56:34;;;;;;;;;;;;;;;38.65;19.19;100055.13;5016362;28;19954;-74
2022/08/03 07:59:01;;;;;;;;;;;;;;;38.77;19.11;100058.59;5016955;28;19917;-74
2022/08/03 08:01:27;;;;;;;;;;;;;;;38.26;19.44;100055.97;5034570;28;19932;-74
2022/08/03 08:03:52;;;;;;;;;;;;;;;38.00;19.57;100051.75;5016637;28;19909;-74
2022/08/03 08:06:18;;;;;;;;;;;;;;;38.10;19.52;100057.88;5017443;28;19909;-74
2022/08/03 08:08:43;;;;;;;;;;;;;;;38.33;19.69;100051.63;5016586;28;20279;-73
2022/08/03 08:11:09;;;;;;;;;;;;;;;38.60;19.48;100061.06;5017179;28;19908;-74
2022/08/03 08:13:36;;;;;;;;;;;;;;;39.22;18.51;100063.38;5016503;28;20369;-74
2022/08/03 08:16:02;;;;;;;;;;;;;;;39.52;18.62;100051.97;5016312;28;19908;-74
2022/08/03 08:18:28;;;;;;;;;;;;;;;39.88;18.31;100065.88;5016419;28;19932;-74
2022/08/03 08:20:54;;;;;;;;;;;;;;;40.80;17.07;100058.44;5016900;28;19909;-74
2022/08/03 08:23:22;;;;;;;;;;;;;;;41.09;16.58;100064.16;5016629;28;19909;-74
2022/08/03 08:25:52;;;;;;;;;;;;;;;41.72;16.43;100060.72;5034091;28;19916;-74
2022/08/03 08:28:21;;;;;;;;;;;;;;;40.94;17.10;100059.06;5016385;28;19977;-73
2022/08/03 08:30:47;;;;;;;;;;;;;;;40.80;17.12;100051.81;5016534;28;19916;-74
2022/08/03 08:33:13;;;;;;;;;;;;;;;39.77;17.37;100058.22;5016065;28;19909;-73
2022/08/03 08:35:38;;;;;;;;;;;;;;;38.83;18.36;100062.16;5012379;28;20356;-73
2022/08/03 08:38:07;;;;;;;;;;;;;;;38.50;18.38;100052.81;5012803;28;19910;-73
2022/08/03 08:40:32;;;;;;;;;;;;;;;37.61;19.56;100060.41;5013181;28;19910;-73
2022/08/03 08:42:58;;;;;;;;;;;;;;;37.82;19.46;100063.41;5012830;28;20367;-75
2022/08/03 08:45:29;;;;;;;;;;;;;;;37.62;19.21;100061.97;4996606;28;19913;-73
2022/08/03 08:47:56;;;;;;;;;;;;;;;38.80;18.43;100060.38;5012650;28;19909;-73
2022/08/03 08:50:22;;;;;;;;;;;;;;;39.35;18.30;100059.59;4996391;28;19943;-74
2022/08/03 08:52:48;;;;;;;;;;;;;;;39.13;18.44;100060.91;5013197;28;19909;-73
2022/08/03 08:55:18;;;;;;;;;;;;;;;39.24;18.50;100066.50;5013556;28;19959;-73
2022/08/03 08:57:46;;;;;;;;;;;;;;;40.29;17.45;100064.22;5013991;28;19913;-73
2022/08/03 09:00:14;;;;;;;;;;;;;;;39.47;18.30;100058.75;5012697;28;19959;-75
2022/08/03 09:02:43;;;;;;;;;;;;;;;40.22;17.68;100053.31;5013093;28;19910;-75
2022/08/03 09:05:10;;;;;;;;;;;;;;;40.81;17.53;100062.13;5014311;28;19910;-75
2022/08/03 09:07:39;;;;;;;;;;;;;;;39.97;18.76;100061.69;5012741;28;19909;-75
2022/08/03 09:10:06;;;;;;;;;;;;;;;39.63;19.20;100058.88;5012684;28;19963;-75
2022/08/03 09:12:36;;;;;;;;;;;;;;;38.74;19.63;100074.28;5012613;28;20341;-75
2022/08/03 09:15:15;;;;;;;;;;;;;;;38.98;19.22;100061.53;5012308;28;19916;-73
2022/08/03 09:17:40;;;;;;;;;;;;;;;38.03;20.08;100061.44;5012631;28;19921;-75
2022/08/03 09:20:07;;;;;;;;;;;;;;;38.46;19.75;100069.84;5012516;28;19909;-75
2022/08/03 09:22:35;;;;;;;;;;;;;;;39.69;18.33;100065.38;5013778;28;20004;-75
2022/08/03 09:25:02;;;;;;;;;;;;;;;39.88;17.98;100060.06;5012984;28;19913;-75
2022/08/03 09:27:28;;;;;;;;;;;;;;;39.45;18.63;100049.81;5012527;28;19956;-75
2022/08/03 09:29:54;;;;;;;;;;;;;;;40.22;17.72;100053.31;5012944;28;19941;-73
2022/08/03 09:32:21;;;;;;;;;;;;;;;39.44;19.56;100050.38;5012530;28;19909;-74
2022/08/03 09:34:52;;;;;;;;;;;;;;;39.42;18.66;100053.88;5011959;28;20124;-74
2022/08/03 09:37:19;;;;;;;;;;;;;;;39.78;18.68;100042.31;5012624;28;19956;-74
2022/08/03 09:39:45;;;;;;;;;;;;;;;40.31;18.17;100038.97;5014684;28;19915;-74
2022/08/03 09:42:16;;;;;;;;;;;;;;;41.03;17.69;100032.25;5017611;28;19959;-74
2022/08/03 09:44:57;;;;;;;;;;;;;;;40.97;17.65;100043.34;5017116;28;19909;-74
2022/08/03 09:47:29;;;;;;;;;;;;;;;39.61;18.69;100035.38;5016636;28;19916;-74
2022/08/03 09:50:00;;;;;;;;;;;;;;;41.06;17.95;100030.31;5016306;28;19909;-74
2022/08/03 09:52:33;;;;;;;;;;;;;;;41.24;17.68;100034.22;5015831;28;19932;-74
2022/08/03 09:55:00;;;;;;;;;;;;;;;41.44;17.34;100038.34;5016583;28;20012;-74
2022/08/03 09:57:26;;;;;;;;;;;;;;;41.13;17.47;100037.53;5017388;28;19910;-74
2022/08/03 09:59:55;;;;;;;;;;;;;;;41.46;17.38;100035.63;5015981;28;19991;-74
2022/08/03 10:02:25;;;;;;;;;;;;;;;41.12;17.55;100022.13;5015702;28;19914;-74
2022/08/03 10:04:54;;;;;;;;;;;;;;;40.74;18.35;100034.47;5016210;28;19917;-75
2022/08/03 10:07:23;;;;;;;;;;;;;;;39.96;18.45;100031.78;5015924;28;19913;-74
2022/08/03 10:10:01;;;;;;;;;;;;;;;41.32;17.98;100029.94;5016672;28;19916;-74
2022/08/03 10:12:30;;;;;;;;;;;;;;;40.06;18.62;100021.19;5015702;28;20371;-74
2022/08/03 10:15:03;;;;;;;;;;;;;;;39.78;18.64;100021.16;5015347;28;19910;-74
2022/08/03 10:17:31;;;;;;;;;;;;;;;39.99;18.78;100024.00;5016019;28;20016;-74
2022/08/03 10:19:58;;;;;;;;;;;;;;;40.20;18.97;100021.03;5016002;28;20229;-74
2022/08/03 10:22:31;;;;;;;;;;;;;;;39.32;20.23;100014.19;5015527;28;19910;-74
2022/08/03 10:25:02;;;;;;;;;;;;;;;39.97;19.47;100015.06;5015791;28;20266;-74
2022/08/03 10:27:33;;;;;;;;;;;;;;;39.54;19.75;100014.38;5016775;28;19915;-74
2022/08/03 10:30:00;;;;;;;;;;;;;;;39.43;19.49;100008.06;5014832;28;19916;-74
2022/08/03 10:32:45;;;;;;;;;;;;;;;39.02;19.52;100010.41;5015412;28;19909;-73
2022/08/03 10:35:15;;;;;;;;;;;;;;;39.56;19.27;100005.84;5014807;28;19917;-73
2022/08/03 10:37:43;;;;;;;;;;;;;;;39.33;18.58;100010.72;5015233;28;20025;-73
2022/08/03 10:40:14;;;;;;;;;;;;;;;39.90;17.92;100007.84;5016390;28;19909;-73
2022/08/03 10:42:40;;;;;;;;;;;;;;;39.52;18.51;100005.41;5015102;28;19961;-73
2022/08/03 10:45:17;;;;;;;;;;;;;;;38.44;19.66;100022.31;5015091;28;19917;-73
2022/08/03 10:47:43;;;;;;;;;;;;;;;39.13;18.63;100012.25;4998836;28;20000;-73
2022/08/03 10:50:08;;;;;;;;;;;;;;;39.74;18.78;100004.06;5013243;28;19999;-73
2022/08/03 10:52:52;;;;;;;;;;;;;;;39.14;18.73;100004.28;5014930;28;19910;-73
2022/08/03 10:58:36;;;;;;;;;;;;;;;38.76;18.60;100005.47;5015894;28;20371;-73
2022/08/03 11:01:02;;;;;;;;;;;;;;;39.42;18.38;100001.47;5014974;28;20336;-73
2022/08/03 11:03:28;;;;;;;;;;;;;;;39.49;18.20;99999.97;5014508;28;19909;-73
2022/08/03 11:06:18;;;;;;;;;;;;;;;38.63;18.64;100008.41;5015001;28;19909;-74
2022/08/03 11:08:47;;;;;;;;;;;;;;;39.14;17.45;100004.28;5014496;28;19909;-74
2022/08/03 11:11:15;;;;;;;;;;;;;;;39.65;17.44;99995.06;5015286;28;19975;-73
2022/08/03 11:13:55;;;;;;;;;;;;;;;38.93;17.71;99999.25;5014249;28;19913;-73
2022/08/03 11:16:24;;;;;;;;;;;;;;;39.19;17.33;99994.66;5015214;28;19959;-73
2022/08/03 11:18:59;;;;;;;;;;;;;;;38.09;19.26;100000.34;5014150;28;19917;-73
2022/08/03 11:21:44;;;;;;;;;;;;;;;37.43;20.09;99992.38;5014179;28;19909;-73
2022/08/03 11:24:09;;;;;;;;;;;;;;;38.37;19.35;99986.03;5014369;28;20456;-73
2022/08/03 11:26:34;;;;;;;;;;;;;;;37.64;18.81;99992.50;5014445;28;19960;-74
2022/08/03 11:29:18;;;;;;;;;;;;;;;37.33;19.60;99994.91;5014411;28;20267;-73
2022/08/03 11:31:45;;;;;;;;;;;;;;;36.59;20.23;99987.91;5014774;28;19962;-74
2022/08/03 11:34:12;;;;;;;;;;;;;;;36.47;20.95;99990.22;5016516;28;19921;-74
2022/08/03 11:36:57;;;;;;;;;;;;;;;36.27;21.74;99982.03;5000958;28;19920;-73
2022/08/03 11:39:36;;;;;;;;;;;;;;;37.19;21.27;99979.59;5033490;28;20018;-73
2022/08/03 11:42:25;;;;;;;;;;;;;;;37.56;20.53;99988.72;5033896;28;19909;-73
2022/08/03 11:44:51;;;;;;;;;;;;;;;37.24;20.46;99975.81;5017502;28;19920;-74
2022/08/03 11:47:17;;;;;;;;;;;;;;;37.46;20.55;99974.66;5034482;28;19909;-73
2022/08/03 11:49:48;;;;;;;;;;;;;;;37.24;21.15;99975.03;5016922;28;19915;-73
2022/08/03 11:52:14;;;;;;;;;;;;;;;37.10;21.41;99980.00;5016734;28;19909;-74
2022/08/03 11:54:40;;;;;;;;;;;;;;;37.69;20.95;99969.19;5016936;28;19913;-74
2022/08/03 11:57:08;;;;;;;;;;;;;;;38.09;20.21;99974.19;5017167;28;19915;-74
2022/08/03 11:59:34;;;;;;;;;;;;;;;38.16;20.15;99982.25;5016566;28;19959;-74
2022/08/03 12:02:10;;;;;;;;;;;;;;;38.51;19.91;99973.03;5017092;28;19909;-74
2022/08/03 12:04:57;;;;;;;;;;;;;;;37.61;19.35;99970.44;5017181;28;19979;-73
2022/08/03 12:07:29;;;;;;;;;;;;;;;37.75;20.21;99974.88;5033982;28;19909;-75
2022/08/03 12:10:11;;;;;;;;;;;;;;;37.99;19.54;99963.06;5016461;28;19909;-74
2022/08/03 12:12:36;;;;;;;;;;;;;;;38.38;19.42;99958.53;5016422;28;19924;-75
2022/08/03 12:15:02;;;;;;;;;;;;;;;38.49;19.46;99958.25;5016323;28;19909;-75
2022/08/03 12:17:32;;;;;;;;;;;;;;;38.24;19.54;99962.78;5016396;28;19909;-75
2022/08/03 12:20:01;;;;;;;;;;;;;;;38.04;20.26;99958.47;5016643;28;19932;-75
2022/08/03 12:22:30;;;;;;;;;;;;;;;37.96;20.56;99958.38;5016407;28;19916;-75
2022/08/03 12:24:56;;;;;;;;;;;;;;;38.41;20.21;99960.31;5033760;28;19909;-75
2022/08/03 12:27:23;;;;;;;;;;;;;;;38.27;19.71;99953.72;5015791;28;20393;-75
2022/08/03 12:29:53;;;;;;;;;;;;;;;38.53;19.34;99961.59;5016331;28;19955;-75
2022/08/03 12:32:18;;;;;;;;;;;;;;;38.25;19.50;99953.50;5016702;28;19979;-75
2022/08/03 12:34:48;;;;;;;;;;;;;;;38.30;20.00;99945.25;5012993;28;20364;-75
2022/08/03 12:37:23;;;;;;;;;;;;;;;38.21;20.38;99944.34;5014113;28;19917;-75
2022/08/03 12:39:54;;;;;;;;;;;;;;;38.13;20.09;99942.69;5012726;28;19909;-75
2022/08/03 12:42:19;;;;;;;;;;;;;;;37.81;20.18;99939.91;5012682;28;19964;-75
2022/08/03 12:44:47;;;;;;;;;;;;;;;37.75;20.23;99946.63;5013379;28;19909;-73
2022/08/03 12:47:14;;;;;;;;;;;;;;;37.03;21.57;99936.41;5013731;28;19917;-73
2022/08/03 12:49:47;;;;;;;;;;;;;;;36.97;21.95;99934.38;5012977;28;19910;-73
2022/08/03 12:52:13;;;;;;;;;;;;;;;37.03;21.94;99933.50;5012628;28;19909;-73
2022/08/03 12:54:39;;;;;;;;;;;;;;;36.71;22.02;99925.56;5012904;28;19916;-74
2022/08/03 12:57:11;;;;;;;;;;;;;;;36.40;22.93;99927.09;5012955;28;20316;-73
2022/08/03 12:59:44;;;;;;;;;;;;;;;36.73;22.37;99931.59;4996871;28;19960;-73
2022/08/03 13:02:20;;;;;;;;;;;;;;;37.11;21.09;99932.28;5014259;28;19909;-75
2022/08/03 13:04:46;;;;;;;;;;;;;;;36.60;21.79;99922.88;5012534;28;19936;-73